x

8454000 - Providence, Ri (foxr1) Weather Station

4:54 - Thu 29th Jan 2015 All times are EST. -5 hours from GMT.

  • Wind
    6mph, 8mph gusts
  • Sea Temp 36°f
  • Aire Temp 30°f
  • Sea Pressure 1021.1mb
  • 8454000 - Providence, Ri
  • 8454000 - Providence, Ri

More Historic Weather Station data

Upgrade to MSW Pro to gain access to the past 30 days of data for over 8000 Wavebouys and Weather Stations around the globe.

Join Pro

Comparision Forecast

View Surf forecast
   
jue 01/29 4:54 6 8 mph 1021.1mb 36f 30f
4:48 5 8 mph 1021.1mb 36f 30f
4:42 7 9 mph 1021.1mb 36f 30f
4:36 6 7 mph 1021.1mb 36f 30f
4:30 6 8 mph 1021.1mb 36f 31f
4:24 7 10 mph 1021.2mb 36f 31f
4:18 8 10 mph 1021.3mb 36f 31f
4:12 8 10 mph 1021.4mb 36f 31f
4:06 8 10 mph 1021.3mb 36f 31f
4:00 7 8 mph 1021.3mb 36f 31f
3:54 6 8 mph 1021.3mb 36f 32f
3:48 6 8 mph 1021.4mb 37f 32f
3:42 6 8 mph 1021.4mb 37f 32f
3:36 7 9 mph 1021.5mb 37f 32f
3:30 7 8 mph 1021.5mb 37f 32f
3:24 5 9 mph 1021.6mb 37f 32f
3:18 5 9 mph 1021.7mb 37f 32f
3:12 8 10 mph 1021.8mb 37f 32f
3:06 6 8 mph 1021.8mb 37f 32f
3:00 7 9 mph 1021.9mb 37f 32f
2:54 7 9 mph 1022mb 37f 31f
2:48 7 9 mph 1022mb 37f 32f
2:42 7 9 mph 1022.1mb 36f 32f
2:36 7 9 mph 1022.1mb 36f 32f
2:30 7 9 mph 1022.2mb 36f 32f
2:24 6 8 mph 1022.3mb 37f 33f
2:18 6 8 mph 1022.3mb 37f 32f
2:12 7 9 mph 1022.4mb 37f 33f
2:06 7 10 mph 1022.4mb 37f 33f
2:00 5 7 mph 1022.5mb 36f 33f
1:30 6 7 mph 1022.8mb 35f 31f
1:24 6 7 mph 1022.9mb 34f 31f
1:18 5 8 mph 1023mb 34f 32f
1:12 3 5 mph 1023mb 34f 32f
1:06 3 6 mph 1023mb 34f 32f
1:00 2 3 mph 1023mb 34f 32f
12:54 2 5 mph 1023.1mb 34f 31f
12:48 2 3 mph 1023.2mb 34f 31f
12:42 2 3 mph 1023.2mb 34f 30f
12:36 2 3 mph 1023.2mb 34f 29f
12:30 2
mph
1023.3mb 34f 29f
12:24 2
mph
1023.6mb 34f 29f
12:18 1 2 mph 1023.7mb 34f 29f
12:12 1 2 mph 1023.9mb 34f 29f
12:06  -  2 mph 1024.1mb 34f 29f
12:00 2
mph
1024.1mb 34f 28f
11:54 2 3 mph 1024.2mb 33f 28f
11:48 3
mph
1024.4mb 33f 28f
11:42 2 3 mph 1024.6mb 34f 27f
11:36 2 3 mph 1024.7mb 34f 27f
11:30 2 3 mph 1024.7mb 34f 27f
11:24 2 3 mph 1024.9mb 34f 27f
11:18 2 3 mph 1025mb 34f 26f
11:12 2
mph
1025.1mb 34f 26f
11:06 1 2 mph 1025.3mb 34f 26f
11:00 1 2 mph 1025.4mb 34f 25f
10:00 2 3 mph 1026mb 34f 22f
9:54  -  2 mph 1026.1mb 34f 22f
9:48 1 3 mph 1026.1mb 34f 22f
9:42  -  3 mph 1026.1mb 34f 24f
9:36 2 5 mph 1026.2mb 34f 23f
9:30 3 5 mph 1026.2mb 34f 22f
9:24 3 6 mph 1026.2mb 34f 21f
9:18 2 6 mph 1026.2mb 34f 20f
9:12 3 6 mph 1026.2mb 34f 20f
9:06 1 2 mph 1026.2mb 34f 20f
9:00  -  3 mph 1026.1mb 34f 20f
8:54 1 2 mph 1026.1mb 34f 19f
8:48  -  1 mph 1026.1mb 34f 18f
8:42  -  2 mph 1026mb 34f 18f
8:36 1 2 mph 1025.9mb 34f 18f
8:30  -  3 mph 1025.9mb 34f 17f
8:24 2 3 mph 1026mb 34f 16f
8:18  -  3 mph 1026mb 34f 17f
8:12 1 3 mph 1026mb 34f 17f
8:06 2
mph
1026.1mb 34f 17f
8:00  -  2 mph 1026.1mb 34f 17f
7:54 2
mph
1025.9mb 34f 16f
7:48  -  3 mph 1025.9mb 34f 15f
7:42 2 6 mph 1025.9mb 34f 14f
7:36 5 6 mph 1025.9mb 34f 14f
7:30 2 3 mph 1025.8mb 34f 14f
7:24 1 3 mph 1025.7mb 34f 14f
7:18 2 3 mph 1025.6mb 34f 13f
7:12 2 3 mph 1025.7mb 34f 13f
7:06 2 3 mph 1025.6mb 34f 12f
7:00 3
mph
1025.6mb 34f 11f
6:54 2 3 mph 1025.5mb 34f 12f
6:48 2 3 mph 1025.3mb 34f 12f
6:42 2 5 mph 1025.2mb 34f 12f
6:36 3
mph
1025.2mb 34f 12f
6:30 2 3 mph 1025.1mb 35f 12f
6:24 3
mph
1025.1mb 35f 12f
6:18 2 3 mph 1025mb 35f 12f
6:12 2 3 mph 1025mb 35f 12f
6:06 2 3 mph 1024.9mb 35f 12f
6:00  -  2 mph 1024.9mb 35f 13f
5:54  -  3 mph 1024.7mb 35f 14f
5:48 1 3 mph 1024.7mb 35f 13f
5:42 3 5 mph 1024.8mb 35f 13f
5:36 3 5 mph 1024.9mb 35f 13f
5:30 3 6 mph 1024.8mb 35f 13f
5:24 6
mph
1024.9mb 35f 13f
5:18 3 5 mph 1024.9mb 35f 14f
5:12 5
mph
1024.9mb 35f 13f
5:06 3 5 mph 1024.8mb 36f 13f
5:00 2 5 mph 1024.9mb 36f 13f
4:54 2 5 mph 1025mb 36f 13f
4:48 3 5 mph 1025.3mb 36f 13f
4:42 3 5 mph 1025.2mb 36f 13f
4:36 3 6 mph 1025mb 36f 13f
4:30 5 6 mph 1025.1mb 36f 14f
4:24 6 7 mph 1025mb 36f 14f
4:18 7 8 mph 1025mb 36f 14f
4:12 2 7 mph 1024.9mb 36f 14f
4:06 6 7 mph 1024.7mb 36f 14f
4:00 2 3 mph 1024.5mb 36f 13f
3:54 2 3 mph 1024.5mb 36f 14f
3:48  -  1 mph 1024.5mb 36f 13f
3:42 1 3 mph 1024.4mb 36f 14f
3:36 2 3 mph 1024.6mb 36f 13f
3:30 2
mph
1024.7mb 37f 13f
3:24 2
mph
1024.7mb 37f 14f
3:18 2 3 mph 1024.5mb 37f 14f
3:12 2 3 mph 1024.6mb 37f 14f
3:06 2 3 mph 1024.7mb 37f 14f
3:00 2
mph
1024.6mb 37f 14f
2:54 3
mph
1024.7mb 37f 14f
2:48 2 3 mph 1024.6mb 37f 14f
2:42 2 3 mph 1024.6mb 37f 14f
2:36 2
mph
1024.5mb 37f 14f
2:30 2
mph
1024.4mb 37f 14f
2:24 1 2 mph 1024.4mb 37f 15f
2:18 2 5 mph 1024.4mb 37f 15f
2:12 3 5 mph 1024.4mb 37f 15f
2:06 3 5 mph 1024.3mb 37f 15f
2:00 3 6 mph 1024.3mb 37f 15f
1:54 5 6 mph 1024.2mb 37f 16f
1:48 2 5 mph - - -
1:42 3 6 mph 1024.1mb 37f 16f
1:36 3 6 mph 1024mb 37f 16f
1:30 5 6 mph 1023.9mb 37f 17f
1:24 6 7 mph 1023.9mb 37f 18f
1:18 6 7 mph 1023.7mb 37f 18f
1:12 6 7 mph 1023.7mb 37f 18f
1:06 5 7 mph 1023.6mb 37f 18f
1:00 5 6 mph 1023.5mb 36f 18f
12:54 3 5 mph 1023.4mb 36f 19f
12:48 2 5 mph 1023.2mb 36f 18f
12:42 3 6 mph 1023.2mb 36f 19f
12:36 5 6 mph 1023.3mb 36f 19f
12:30 6 8 mph 1023.2mb 36f 19f
12:24 3 5 mph 1023.1mb 35f 19f
12:18 3 6 mph 1023.1mb 35f 19f
12:12 5 6 mph 1023mb 35f 19f
12:06 3 7 mph 1023mb 35f 19f
12:00 6 8 mph 1023mb 34f 19f
mié 01/28 11:54 7 8 mph 1023mb 34f 19f
11:48 6 8 mph 1023.1mb 34f 19f
11:42 6 8 mph 1023.2mb 34f 20f
11:36 6 9 mph 1023.1mb 34f 20f
11:30 6 8 mph 1023.1mb 33f 20f
11:24 6 7 mph 1023mb 33f 20f
11:18 6 8 mph 1023mb 33f 20f
11:12 6 8 mph 1022.9mb 33f 20f
11:06 6 7 mph 1022.9mb 33f 20f
11:00 6 7 mph 1022.7mb 33f 20f
10:54 5 7 mph 1022.7mb 33f 20f
10:48 6 7 mph 1022.6mb 33f 21f
10:42 5 7 mph 1022.5mb 33f 21f
10:36 2 5 mph 1022.5mb 33f 21f
10:30 3 6 mph 1022.4mb 33f 21f
10:24 5 7 mph 1022.2mb 33f 21f
10:18 3 6 mph 1022.1mb 33f 22f
10:12 5 7 mph 1022.1mb 33f 22f
10:06 6 9 mph 1021.9mb 33f 22f
10:00 6 9 mph 1021.7mb 33f 22f
9:54 9 10 mph 1021.7mb 33f 22f
9:48 7 9 mph - - -
9:42 8 10 mph 1021.5mb 33f 23f
9:36 7 9 mph 1021.4mb 33f 23f
9:30  -  mph 1021.3mb 33f 23f
9:24 6 10 mph 1021.3mb 33f 23f
9:18 7 10 mph 1021.2mb 33f 23f
9:12 6 8 mph 1021.2mb 33f 23f
9:06 6 8 mph 1021.1mb 33f 23f
9:00 5 9 mph 1021mb - -
8:54 6 11 mph 1020.9mb - -
8:48 5 7 mph 1020.7mb 33f 23f
8:42 6 9 mph 1020.7mb 33f 24f
8:36 5 9 mph 1020.6mb 33f 23f
8:30 5 13 mph 1020.5mb 33f 24f
8:24 7 9 mph 1020.5mb 33f 23f
8:18 7 11 mph 1020.4mb - 23f
8:12 7 10 mph 1020.4mb - 23f
8:06 8 11 mph 1020.3mb - 24f
8:00 8 10 mph 1020.2mb 34f 24f
7:54 8 11 mph 1020.1mb 34f 24f
7:48 8 11 mph 1020.1mb 34f 24f
7:42 9 16 mph 1020mb 34f 24f
7:36 8 11 mph 1019.9mb 34f 24f
7:30 7 9 mph 1019.8mb 34f 24f
7:24 7 8 mph 1019.7mb 34f 24f
7:18 6 9 mph 1019.6mb 34f 24f
7:12 5 9 mph 1019.5mb 34f 24f
7:06 8 11 mph 1019.4mb 34f 24f
7:00 8 10 mph 1019.4mb 34f 24f
6:54 6 9 mph 1019.3mb 34f 24f
6:48 6 9 mph 1019.2mb 34f 24f
6:42 6 9 mph 1019.1mb 34f 24f
6:36 6 9 mph 1019mb 34f 25f
6:30 8 10 mph 1018.9mb 34f 25f
6:24 7 9 mph 1018.8mb 34f 25f
6:18 6 10 mph 1018.8mb 34f 25f
6:12 6 9 mph 1018.6mb 34f 25f
6:06 7 10 mph 1018.5mb 34f 25f
6:00 7 11 mph 1018.5mb 34f 25f
5:54 7 10 mph 1018.3mb 34f 26f
5:48 7 10 mph 1018.2mb 34f 26f
5:42 6 8 mph 1018mb 34f 26f
5:36 8 10 mph 1017.8mb 34f 26f
5:30 8 10 mph 1017.7mb 34f 26f
5:24 9 14 mph 1017.6mb 34f 26f
5:18 10 14 mph 1017.5mb 34f 26f
5:12 11 16 mph 1017.3mb 34f 26f
5:06 8 10 mph 1017.1mb 34f 26f
5:00  -  mph 1016.9mb 35f -
4:54  -  mph 1016.8mb 35f -
4:48 7 10 mph 1016.7mb 35f 26f
4:42 6 8 mph 1016.5mb 35f 26f
4:36 7 13 mph 1016.4mb 35f 26f
4:30 8 13 mph 1016.3mb 35f 26f
4:24 8 13 mph 1016.2mb 35f 26f
4:18  -  mph - 35f 26f
4:12  -  mph - 35f 26f
4:06  -  mph - 35f 26f
4:00 11 18 mph 1015.9mb 35f 26f
3:54 10 16 mph 1015.8mb 35f 26f
3:48 14 18 mph 1015.8mb 36f 26f
3:42 11 17 mph 1015.7mb 36f 26f
3:36 14 18 mph 1015.6mb 36f 26f
3:30 14 17 mph 1015.5mb 36f 26f
3:24 11 17 mph 1015.5mb 36f 26f
3:18 10 17 mph 1015.4mb 36f 26f
3:12 10 17 mph 1015.3mb 36f 26f
3:06 10 16 mph 1015.2mb 36f 26f
3:00 13 18 mph 1015.1mb 36f 26f
2:54 15 21 mph 1015mb 36f 26f
2:48 15 18 mph 1014.8mb 36f 26f
2:42 9 14 mph 1014.8mb 36f 26f
2:36 10 17 mph 1014.8mb 36f 26f
2:30 7 13 mph 1014.7mb 37f 25f
2:24 9 14 mph 1014.6mb 37f 25f
2:18 3 9 mph 1014.5mb 37f 25f
2:12 7 14 mph 1014.4mb 37f 24f
2:06 10 15 mph 1014.4mb 37f 24f
2:00 8 14 mph 1014.4mb 37f 24f
1:54 9 14 mph 1014.4mb 37f 24f
1:48 7 14 mph 1014.3mb 37f 23f
1:42 9 15 mph 1014.3mb 37f 23f
1:36 8 13 mph 1014.3mb 37f 23f
1:30 9 14 mph 1014.3mb 36f 22f
1:24 11 15 mph 1014.3mb 36f 22f
1:18 10 16 mph 1014.3mb 36f 22f
1:12 15 18 mph 1014.2mb 36f 22f
1:06 11 20 mph 1014.2mb 36f 22f
1:00  -  mph 1014.2mb 35f 21f
12:54  -  mph 1014.2mb 35f 21f
12:48 9 16 mph 1014.2mb 35f 21f
12:42 11 16 mph 1014.2mb 34f 21f
12:36 13 17 mph 1014.1mb 34f 21f
12:30 11 16 mph 1014mb 34f 21f
12:24 9 17 mph 1014mb 34f 21f
12:18 14 18 mph 1013.9mb 34f 21f
12:12 8 15 mph 1013.9mb 33f 21f
12:06 11 15 mph 1013.8mb 33f 21f
12:00 10 15 mph 1013.9mb 33f 21f
11:54 8 15 mph 1013.8mb 33f 21f
11:48 9 13 mph 1013.8mb 33f 20f
11:42 9 14 mph 1013.7mb 33f 20f
11:36 9 16 mph 1013.7mb 33f 20f
11:30 11 16 mph 1013.7mb 33f 20f
11:24 11 16 mph 1013.7mb 32f 20f
11:18 10 20 mph 1013.8mb 32f 20f
11:12 14 21 mph 1013.7mb 32f 20f
11:06 15 20 mph 1013.7mb 32f 19f
11:00  -  mph - - 19f
10:54  -  mph - - 20f
10:48 14 20 mph 1013.7mb 32f 19f
10:42 14 20 mph 1013.7mb 32f 19f
10:36 14 18 mph 1013.6mb 32f 19f
10:30 10 17 mph 1013.5mb 32f 19f
10:24 9 16 mph 1013.5mb 32f 19f
10:18 13 18 mph 1013.5mb 32f 19f
10:12 10 17 mph 1013.5mb 32f 18f
10:06 15 18 mph 1013.5mb 32f 17f
10:00 15 18 mph 1013.5mb 32f 17f
9:54 9 16 mph 1013.5mb 32f 17f
9:48 10 22 mph 1013.3mb 32f 17f
9:42 16 22 mph 1013.3mb 32f 17f
9:36 10 20 mph 1013.3mb 32f 17f
9:30 14 21 mph 1013.3mb 32f 16f
9:24 14 18 mph 1013.2mb 32f 16f
9:18 11 17 mph 1013.1mb 32f 16f
9:12 11 17 mph 1013.1mb 32f 16f
9:06 14 18 mph 1013mb 32f 15f
9:00 14 21 mph 1012.9mb 32f 15f
8:54 17 21 mph 1012.8mb 32f 15f
8:48 16 22 mph 1012.7mb 32f 16f
8:42 14 20 mph 1012.6mb 32f 15f
8:36 14 22 mph 1012.6mb 32f 15f
8:30 13 18 mph 1012.4mb 32f 15f
8:24 14 21 mph 1012.3mb 32f 15f
8:18 13 21 mph 1012.2mb 32f 15f
8:12 18 23 mph 1012.1mb 32f 14f
8:06 13 20 mph 1012mb 32f 14f
8:00 13 20 mph 1012mb 32f 14f
7:54 9 17 mph 1011.9mb 33f 14f
7:48 10 17 mph 1011.8mb 33f 14f
7:42 11 15 mph 1011.8mb 33f 14f
7:36 13 20 mph 1011.6mb 33f 14f
7:30 10 17 mph 1011.5mb 33f 13f
7:24 8 16 mph 1011.4mb 33f 13f
7:18 13 22 mph 1011.3mb 33f 13f
7:12 11 17 mph 1011.2mb 33f 13f
7:06 13 18 mph 1011mb 33f 13f
7:00 13 17 mph 1010.9mb 33f 13f
6:54 13 18 mph 1010.8mb 33f 13f
6:48 11 18 mph 1010.6mb 33f 13f
6:42 10 16 mph 1010.5mb 33f 13f
6:36 14 20 mph 1010.4mb 33f 13f
6:30 13 18 mph 1010.3mb 33f 13f
6:24 13 18 mph 1010.2mb 33f 14f
6:18 9 16 mph 1010.1mb 33f 14f
6:12 11 17 mph 1010mb 33f 14f
6:06 11 16 mph 1009.9mb 33f 14f
6:00 11 17 mph 1009.8mb 34f 14f
5:54 10 18 mph 1009.7mb 34f 14f
5:48 11 16 mph 1009.6mb - -
5:42 13 18 mph 1009.5mb - -
5:36 11 16 mph 1009.4mb - -
5:30 13 17 mph 1009.3mb 34f 14f
5:24 11 15 mph 1009.2mb 34f 14f
5:18 10 17 mph - - -
5:12 9 16 mph 1008.9mb 34f 14f
5:06 10 14 mph 1008.8mb 34f 14f
5:00 10 16 mph 1008.7mb 34f 14f
4:54 11 16 mph 1008.5mb 35f 14f
4:48 11 18 mph 1008.4mb 35f 14f
4:42 13 18 mph 1008.2mb 35f 14f
4:36 14 18 mph 1008.2mb 35f 14f
4:30 10 15 mph 1008.1mb 35f 14f
4:24 9 15 mph 1008mb 35f 14f
4:18 11 16 mph 1007.8mb 35f 14f
4:12 10 15 mph 1007.7mb 35f 14f
4:06 10 15 mph 1007.6mb 35f 14f
4:00 11 16 mph 1007.4mb 35f 14f
3:54 11 15 mph 1007.4mb 35f 14f
3:48 13 15 mph 1007.3mb 35f 14f
3:42 11 17 mph 1007.2mb 35f 14f
3:36 9 15 mph 1007.2mb 35f 14f
3:30 10 17 mph 1007.2mb 36f 14f
3:24 10 17 mph 1007.1mb 36f 14f
3:18 10 14 mph 1007mb 36f 14f
3:12 11 17 mph 1006.9mb 36f 14f
3:06 13 18 mph 1006.8mb 36f 14f
3:00 11 16 mph 1006.7mb 36f 14f
2:54 7 14 mph 1006.6mb 36f 14f
2:48 13 15 mph 1006.4mb 36f 14f
2:42 10 15 mph 1006.3mb 36f 15f
2:36 11 15 mph 1006.2mb 36f 14f
2:30 8 13 mph 1006.1mb 36f 14f
2:24 9 15 mph 1006mb 36f 14f
2:18 10 15 mph 1006mb 36f 14f
2:12 13 15 mph 1005.9mb 36f 15f
2:06 8 15 mph 1005.8mb 36f 15f
2:00 11 16 mph 1005.8mb 36f 15f
1:54 10 16 mph 1005.7mb 36f 15f
1:48 9 15 mph 1005.6mb 36f 15f
1:42 10 14 mph 1005.5mb 36f 15f
1:36 13 16 mph 1005.4mb 37f 15f
1:30 9 17 mph 1005.3mb 37f 15f
1:24 10 15 mph 1005.3mb 37f 15f
1:18 9 16 mph 1005.2mb - -
1:12 10 16 mph 1005mb 37f 15f
1:06 11 20 mph 1005mb 37f 15f
1:00 9 18 mph 1004.9mb 37f 15f
12:54 11 17 mph 1004.8mb 37f 15f
12:48 11 18 mph 1004.8mb 37f 15f
12:42 14 18 mph 1004.7mb 37f 15f
12:36 14 18 mph 1004.6mb 37f 15f
12:30 15 21 mph 1004.6mb 37f 15f
12:24 13 20 mph 1004.5mb 37f 15f
12:18 11 17 mph 1004.5mb 37f 15f
12:12 10 15 mph 1004.4mb 37f 15f
12:06 13 18 mph 1004.4mb 37f 15f
12:00 13 18 mph 1004.4mb 37f 15f
mar 01/27 11:54 14 18 mph 1004.5mb 36f 15f
11:48 14 20 mph 1004.4mb 36f 14f
11:42 11 17 mph 1004.4mb 36f 14f
11:36 14 20 mph 1004.4mb 36f 14f
11:30 14 18 mph 1004.3mb 36f 14f
11:24 16 22 mph 1004.2mb 35f 15f
11:18 17 24 mph 1004.2mb 35f 15f
11:12 11 20 mph 1004.3mb 35f 14f
11:06 11 22 mph 1004.2mb 35f 14f
11:00 17 22 mph 1004mb 35f 14f
10:54 14 23 mph 1004mb 35f 14f
10:48 13 20 mph 1004mb 34f 14f
10:42 14 21 mph 1003.9mb 34f 14f
10:36 14 22 mph 1003.9mb 34f 14f
10:30 13 18 mph 1003.8mb 34f 15f
10:24 15 21 mph 1003.7mb 34f 15f
10:18 15 22 mph 1003.7mb 34f 15f
10:12 14 21 mph 1003.5mb 34f 15f
10:06 14 20 mph 1003.4mb 34f 15f
10:00 11 21 mph 1003.2mb 33f 15f
9:54 15 20 mph 1003.2mb 33f 15f
9:48 14 23 mph 1003.1mb 33f 15f
9:42 16 23 mph 1003mb 33f 15f
9:36 15 22 mph 1002.9mb 33f 15f
9:30 13 20 mph 1002.9mb 33f 15f
9:24 14 23 mph 1002.7mb 33f 15f
9:18 14 21 mph 1002.6mb 33f 15f
9:12 13 21 mph 1002.6mb 33f 15f
9:06 17 26 mph 1002.5mb 33f 15f
9:00 16 22 mph 1002.5mb 33f 15f
8:54 20 26 mph 1002.4mb 33f 15f
8:48 15 29 mph - - -
8:42 11 23 mph 1002.4mb 33f 15f
8:36 14 26 mph 1002.2mb 33f 15f
8:30 14 25 mph 1002.1mb 33f 15f
8:24 13 23 mph 1002.1mb 33f 15f
8:18 14 22 mph 1002mb 33f 15f
8:12 14 26 mph 1001.9mb 33f 16f
8:06 17 22 mph 1001.8mb 33f 16f
8:00 17 25 mph 1001.7mb 33f 16f
7:54 18 25 mph 1001.7mb 33f 16f
7:48 14 21 mph 1001.6mb 33f 16f
7:42 16 24 mph 1001.5mb 33f 16f
7:36 15 22 mph 1001.4mb 33f 16f
7:30 17 22 mph 1001.3mb 34f 16f
7:24 13 26 mph 1001.3mb 34f 16f
7:18 16 21 mph 1001.1mb 33f 16f
7:12 15 23 mph 1001mb 34f 16f
7:06 17 25 mph 1000.9mb 34f 17f
7:00 17 24 mph 1000.8mb 34f 17f
6:54 18 24 mph 1000.7mb 34f 18f
6:48 18 24 mph - - -
6:42 14 22 mph 1000.6mb 34f 18f
6:36 15 21 mph 1000.5mb 34f 18f
6:30 14 23 mph 1000.4mb 34f 19f
6:24 10 21 mph 1000.3mb 34f 19f
6:18 17 22 mph 1000.2mb 34f 19f
6:12 18 24 mph 1000.1mb 34f 19f
6:06 15 23 mph 1000mb 34f 19f
6:00 16 20 mph 999.9mb 34f 19f
5:54 14 22 mph 999.8mb 34f 19f
5:48 16 18 mph 999.7mb 34f 19f
5:42 14 22 mph 999.6mb 34f 19f
5:36 14 21 mph 999.6mb 34f 19f
5:30 14 20 mph 999.4mb 34f 19f
5:24 15 25 mph 999.3mb 34f 19f
5:18 16 22 mph 999.2mb 34f 19f
5:12 14 23 mph 999.1mb 34f 19f
5:06 15 22 mph 999mb 34f 19f
5:00 10 17 mph 999mb 34f 19f
4:54 11 21 mph 999.1mb 34f 20f
4:48 18 30 mph 998.9mb 34f 21f
4:42 17 29 mph 998.8mb 34f 21f
4:36 17 22 mph 998.6mb 34f 20f
4:30 15 21 mph 998.7mb 35f 21f
4:24 16 29 mph 998.5mb 35f 21f
4:18 16 36 mph 998.4mb 35f 21f
4:12 18 31 mph 998.3mb 35f 21f
4:06 21 36 mph 998.2mb 35f 21f
4:00 17 37 mph 998.2mb 35f 21f
3:54 20 32 mph 998.2mb 35f 21f
3:48 16 24 mph 998.2mb 35f 21f
3:42 20 29 mph 998.1mb 35f 21f
3:36 16 25 mph 998.1mb 35f 21f
3:30 13 22 mph 998.1mb 35f 21f
3:24 15 25 mph 998.1mb 35f 21f
3:18 20 28 mph 998.2mb 35f 21f
3:12 18 29 mph 998.1mb 35f 21f
3:06 14 26 mph 998.1mb 35f 21f
3:00 13 22 mph 998.1mb 35f 20f
2:54 17 28 mph 998.1mb 35f 20f
2:48 20 28 mph 998mb 36f 20f
2:42 20 33 mph 998.1mb 36f 20f
2:36 10 24 mph 998mb 36f 20f
2:30 17 30 mph 997.9mb 36f 20f
2:24 21 33 mph 997.9mb 36f 20f
2:18 13 24 mph 997.8mb 36f 20f
2:12 16 30 mph 997.8mb 36f 20f
2:06 24 31 mph 997.7mb 36f 19f
2:00 23 32 mph 997.7mb 36f 19f
1:54 21 33 mph 997.8mb 36f 19f
1:48 17 24 mph 997.7mb 37f 19f
1:42 18 29 mph 997.7mb 37f 20f
1:36 20 29 mph 997.6mb 37f 19f
1:30 17 23 mph 997.6mb 37f 19f
1:24 17 34 mph 997.6mb 37f 19f
1:18 18 29 mph 997.6mb 37f 19f
1:12 15 28 mph 997.5mb 37f 19f
1:06 21 30 mph 997.4mb 37f 19f
1:00 17 29 mph 997.5mb 37f 18f
12:54 14 33 mph 997.5mb 37f 18f
12:48 16 29 mph 997.4mb 37f 18f
12:42 16 24 mph 997.3mb 37f 18f
12:36 20 32 mph 997.3mb 37f 18f
12:30 24 33 mph 997.1mb 37f 18f
12:24 20 28 mph 997.2mb 37f 18f
12:18 14 26 mph 997.2mb 37f 18f
12:12 20 32 mph 997.3mb 37f 17f
12:06 18 29 mph 997.4mb 37f 17f
12:00 21 28 mph 997.4mb 37f 18f
11:54 16 25 mph 997.4mb 37f 18f
11:48 13 30 mph 997.7mb 37f 18f
11:42 16 29 mph 997.6mb 37f 18f
11:36 17 28 mph 997.5mb 37f 18f
11:30 21 30 mph 997.6mb 37f 18f
11:24 21 34 mph 997.5mb 37f 17f
11:18 18 26 mph 997.6mb 37f 18f
11:12 18 26 mph 997.7mb 37f 18f
11:06 17 26 mph 997.7mb 37f 18f
11:00 14 26 mph 997.8mb 37f 18f
10:54 16 25 mph 997.9mb 37f 18f
10:48 16 26 mph 998mb 37f 17f
10:42 14 26 mph 997.9mb 37f 17f
10:36 15 30 mph 998mb 37f 17f
10:30 15 29 mph 998mb 37f 17f
10:24 14 28 mph 998mb 36f 17f
10:18 15 28 mph 998mb 36f 17f
10:12 14 23 mph 998mb 36f 18f
10:06 14 29 mph 997.9mb 35f 17f
10:00 16 28 mph 997.8mb 35f 17f
9:54 20 33 mph 997.8mb 34f 17f
9:48 13 24 mph 997.7mb 34f 18f
9:42 14 25 mph 997.6mb 34f 18f
9:36 14 28 mph 997.6mb 34f 17f
9:30 16 26 mph 997.6mb 34f 17f
9:24 14 26 mph 997.6mb 34f 17f
9:18 15 26 mph 997.5mb 34f 17f
9:12 13 29 mph 997.6mb 34f 17f
9:06 18 34 mph 997.5mb 34f 17f
9:00 20 29 mph 997.4mb 34f 17f
8:54 17 26 mph 997.5mb 34f 17f
8:48 18 30 mph 997.6mb 34f 17f
8:42 18 34 mph 997.7mb 34f 17f
8:36 18 30 mph 997.8mb 34f 17f
8:30 18 26 mph 997.9mb 34f 17f
8:24 21 31 mph 998.1mb 34f 17f
8:18 18 36 mph 998.2mb 34f 17f
8:12 20 36 mph 998.2mb 34f 17f
8:06 16 31 mph 998.4mb 34f 17f
8:00 18 31 mph 998.5mb 34f 17f
7:54 17 29 mph 998.8mb 34f 18f
7:48 20 37 mph 998.9mb 34f 17f
7:42 15 29 mph 999.1mb 34f 17f
7:36 15 32 mph 999.1mb 35f 17f
7:30 20 29 mph 999.1mb 35f 18f
7:24 11 29 mph 999.1mb 35f 18f
7:18 20 34 mph 999mb 35f 18f
7:12 21 37 mph 999.1mb 35f 18f
7:06 22 33 mph 999mb 35f 18f
7:00 21 34 mph 998.9mb 35f 18f
6:54 18 30 mph 999mb 35f 18f
6:48 16 30 mph 999.1mb 35f 18f
6:42 20 32 mph 998.9mb 35f 18f
6:36 21 32 mph 999mb 35f 17f
6:30 16 33 mph 999.1mb 35f 17f
6:24 20 33 mph 999.1mb 35f 17f
6:18 15 29 mph 999.3mb 35f 17f
6:12 22 37 mph 999.3mb 35f 17f
6:06 15 31 mph 999.2mb 35f 17f
6:00 18 32 mph 999.1mb 35f 17f
5:54 18 31 mph 999.1mb 35f 17f
5:48 17 32 mph 999.3mb 35f 17f
5:42 18 33 mph 999.3mb 35f 17f
5:36 14 30 mph 999.2mb 35f 17f
5:30 21 31 mph 999mb 35f 17f
5:24 18 36 mph 998.9mb 35f 17f
5:18 17 40 mph 998.9mb 35f 18f
5:12 20 32 mph 998.7mb 35f 17f
5:06 21 39 mph 998.4mb 35f 17f
5:00 18 34 mph 998.4mb 35f 17f
4:54 18 38 mph 998.7mb 35f 17f
4:48 21 38 mph - - -
4:42 17 36 mph 998.9mb 35f 17f
4:36 20 36 mph 999.1mb 36f 17f
4:30 20 38 mph 998.9mb 36f 17f
4:24 16 34 mph 999.1mb 36f 17f
4:18 23 37 mph 999.2mb 36f 17f
4:12 20 32 mph 999.4mb 36f 17f
4:06 21 37 mph 999.5mb 36f 17f
4:00 15 32 mph 999.7mb 36f 17f
3:54 15 29 mph 999.8mb 36f 17f
3:48 21 40 mph 999.8mb 36f 17f
3:42 21 37 mph 999.9mb 36f 17f
3:36 17 39 mph 999.9mb 37f 17f
3:30 20 41 mph 999.6mb 37f 17f
3:24 21 43 mph 999.6mb 37f 17f
3:18 22 39 mph 999.8mb 37f 17f
3:12 20 43 mph 1000.1mb 37f 17f
3:06 25 41 mph 1000.1mb 37f 17f
3:00 23 36 mph 1000.3mb 37f 17f
2:54 20 36 mph 1000.5mb 37f 17f
2:48 24 37 mph 1000.6mb 37f 17f
2:42 20 37 mph 1000.9mb 37f 17f
2:36 22 33 mph 1001.2mb 37f 17f
2:30 17 32 mph 1001.7mb 37f 17f
2:24 15 29 mph 1002mb 37f 17f
2:18 21 36 mph 1002mb 37f 17f
2:12 18 32 mph 1001.9mb 37f 17f
2:06 16 26 mph 1002mb 38f 17f
2:00 10 33 mph 1002mb 38f 17f
1:54 17 34 mph 1001.9mb 38f 17f
1:48 16 33 mph 1002mb 38f 18f
1:42 21 34 mph 1002.1mb 38f 18f
1:36 17 32 mph 1002.1mb 38f 18f
1:30 16 31 mph 1002.2mb 38f 18f
1:24 16 28 mph 1002.4mb 38f 18f
1:18 20 29 mph 1002.5mb 38f 18f
1:12 17 29 mph 1002.4mb 38f 19f
1:06 20 29 mph 1002.6mb 38f 19f
1:00 17 30 mph 1002.7mb 38f 19f
12:54 16 29 mph 1002.9mb 38f 19f
12:48 22 31 mph 1003.3mb 38f 20f
12:42 20 29 mph 1003.2mb 38f 20f
12:36 21 30 mph 1003.3mb 38f 20f
12:30 15 31 mph 1003.5mb 38f 20f
12:24 18 25 mph 1003.5mb 38f 20f
12:18 16 31 mph 1003.4mb 37f 20f
12:12 20 31 mph 1003.7mb 37f 20f
12:06 14 28 mph 1004.1mb 37f 21f
12:00 22 31 mph 1004.4mb 38f 21f
lun 01/26 11:54 16 29 mph 1004.5mb 38f 21f
11:48 15 25 mph 1004.6mb 38f 21f
11:42 21 31 mph 1004.8mb 38f 22f
11:36 15 23 mph 1005mb 37f 22f
11:30 14 26 mph 1005.3mb 37f 22f
11:24 16 28 mph 1005.6mb 37f 23f
11:18 14 24 mph 1005.8mb 37f 23f
11:12 16 24 mph 1005.9mb 37f 25f
11:06 20 28 mph 1006mb 36f 28f
11:00 16 30 mph 1005.9mb 36f 29f
10:54 20 26 mph 1005.9mb 36f 29f
10:48 21 28 mph 1006mb 36f 29f
10:42 17 31 mph 1006.4mb 35f 29f
10:36 18 29 mph 1006.9mb 35f 29f
10:30 16 26 mph 1007.3mb 35f 29f
10:24 17 25 mph 1007.4mb 35f 29f
10:18 16 25 mph 1007.6mb 35f 29f
10:12 16 23 mph 1007.5mb 35f 29f
10:06 21 30 mph 1007.6mb 35f 28f
10:00 17 26 mph 1007.7mb 35f 28f
9:54 15 26 mph 1008mb 35f 28f
9:48 18 25 mph 1008.2mb 35f 28f
9:42 20 25 mph 1008.5mb 35f 28f
9:36 18 24 mph 1008.7mb 35f 28f
9:30 15 23 mph 1009.1mb 35f 28f
9:24 15 26 mph 1009.3mb 35f 28f
9:18 15 22 mph 1009.5mb 35f 28f
9:12 17 31 mph 1009.7mb 35f 28f
9:06 16 28 mph 1009.9mb 35f 28f
9:00 20 29 mph 1010mb 35f 28f
8:54 16 28 mph 1010.2mb 35f 28f
8:48  -  mph 1010.6mb - -
8:42  -  mph 1010.6mb 35f 28f
8:36  -  mph 1010.7mb 35f 28f
8:30 15 20 mph 1010.8mb 35f 28f
8:24 15 21 mph 1011.2mb 35f 28f
8:18 14 21 mph 1011.5mb 35f 28f
8:12 14 21 mph 1011.8mb 35f 28f
8:06 15 20 mph 1011.8mb 35f 28f
8:00 14 21 mph 1011.8mb 35f 28f
7:54 11 20 mph 1011.9mb 35f 28f
7:48 14 22 mph 1011.9mb 35f 28f
7:42 14 21 mph 1012.1mb 35f 28f
7:36 14 20 mph 1012.3mb 35f 28f
7:30 13 21 mph 1012.7mb 35f 28f
7:24 13 21 mph 1012.9mb 35f 28f
7:18 11 18 mph 1013.1mb 35f 28f
7:12 13 18 mph 1013.3mb 35f 28f
7:06 10 17 mph 1013.3mb 35f 28f
7:00 13 16 mph 1013.2mb 35f 28f
6:54 13 16 mph 1013.2mb 35f 28f
6:48 13 18 mph 1013.3mb 35f 28f
6:42 13 17 mph 1013.3mb 35f 28f
6:36 10 16 mph 1013.4mb 35f 28f
6:30 13 18 mph 1013.3mb 35f 28f
6:24 11 16 mph 1013.4mb 35f 28f
6:18 7 13 mph 1013.5mb 35f 28f
6:12 6 16 mph 1013.4mb 35f 28f
6:06 7 13 mph 1013.4mb 35f 28f
6:00 6 17 mph 1013.5mb 35f 28f
5:54 6 10 mph 1013.5mb 35f 28f
5:48 7 15 mph 1013.7mb 35f 28f
5:42 6 14 mph 1013.9mb 35f 28f
5:36 7 13 mph 1013.9mb 35f 28f
5:30 5 13 mph 1014.1mb 35f 28f
5:24 6 13 mph 1014.1mb 35f 28f
5:18 5 10 mph 1014.3mb 35f 28f
5:12 6 14 mph 1014.2mb 35f 28f
5:06 6 10 mph 1014.2mb 35f 28f
5:00 5 9 mph 1014.3mb 35f 28f
4:54 6 9 mph 1014.2mb 35f 28f
4:48 5 11 mph 1014.3mb 35f 28f
4:42 6 14 mph 1014.1mb 35f 28f
4:36 7 10 mph 1014.1mb 35f 28f
4:30 5 10 mph 1014.1mb 35f 28f
4:24 6 11 mph 1014mb 35f 28f
4:18 6 13 mph 1014mb 35f 28f
4:12 6 10 mph 1014.2mb 35f 28f
4:06 3 8 mph 1014.4mb 35f 28f
4:00 5 9 mph 1014.3mb 35f 28f
3:54 5 7 mph 1014.4mb 36f 27f
3:48 2 9 mph 1014.2mb 36f 27f
3:42 3 8 mph 1014.3mb 36f 26f
3:36 2 10 mph 1014.4mb 37f 26f
3:30 5 10 mph 1014.4mb 37f 26f
3:24 5 10 mph 1014.4mb 37f 26f
3:18 3 9 mph 1014.5mb 37f 25f
3:12 2 6 mph 1014.5mb 37f 25f
3:06 5 8 mph 1014.4mb 37f 25f
3:00 3 10 mph 1014.5mb 37f 25f
2:54 3 10 mph 1014.7mb 37f 25f
2:48 5 10 mph 1014.8mb 37f 25f
2:42 3 10 mph 1014.8mb 37f 25f
2:36 5 9 mph 1014.9mb 37f 25f
2:30 2 13 mph 1015.1mb 37f 25f
2:24 5 11 mph 1015.1mb 37f 25f
2:18 3 14 mph 1015.1mb 37f 25f
2:12 3 10 mph 1015mb 37f 25f
2:06 3 11 mph 1015.1mb 37f 24f
2:00 6 11 mph 1015mb 37f 24f
1:54 5 11 mph 1015.1mb 37f 24f
1:48 3 13 mph 1015.3mb 38f 24f
1:42 6 11 mph 1015.3mb 38f 24f
1:36 6 11 mph 1015.6mb 38f 24f
1:30 3 9 mph 1015.7mb 38f 24f
1:24 6 11 mph 1015.7mb 38f 24f
1:18 6 11 mph 1015.6mb 38f 23f
1:12 5 14 mph 1015.7mb 38f 23f
1:06 2 9 mph 1016mb 38f 23f
1:00 5 11 mph 1016.1mb 38f 23f
12:54 3 9 mph 1016.1mb 38f 23f
12:48 6 13 mph 1016.3mb 38f 23f
12:42 6 9 mph 1016.3mb 38f 22f
12:36 6 10 mph 1016.1mb 38f 22f
12:30 5 11 mph 1016.3mb 38f 22f
12:24 6 10 mph 1016.6mb 38f 22f
12:18 6 14 mph 1016.8mb 38f 22f
12:12 3 8 mph 1017mb 38f 22f
12:06 3 9 mph 1017.2mb 38f 22f
12:00 2 11 mph 1017.3mb 38f 22f
11:54 7 13 mph 1017.3mb 38f 22f
11:48 3 9 mph 1017.5mb 38f 21f
11:42 3 9 mph 1017.7mb 38f 21f
11:36 1 9 mph 1017.8mb 38f 21f
11:30 3 10 mph 1017.9mb 38f 21f
11:24 5 11 mph 1017.7mb 38f 20f
11:18 3 10 mph 1018mb 38f 20f
11:12 6 13 mph 1018.2mb 38f 20f
11:06 5 11 mph 1018.4mb 38f 19f
11:00 5 11 mph 1018.5mb 38f 20f
10:54 3 11 mph 1018.6mb 38f 19f
10:48 3 10 mph 1018.5mb 38f 19f
10:42 5 10 mph 1018.5mb 38f 19f
10:36 3 9 mph 1018.6mb 38f 19f
10:30 6 9 mph 1018.7mb 38f 19f
10:24 3 10 mph 1018.8mb 37f 19f
10:18 2 10 mph 1018.8mb 37f 18f
10:12 6 10 mph 1018.8mb 37f 18f
10:06 6 11 mph 1018.6mb 36f 17f
10:00 5 13 mph 1018.6mb 36f 17f
9:54 5 10 mph 1018.7mb 36f 18f
9:48 3 10 mph 1018.7mb 36f 17f
9:42 6 11 mph 1018.8mb 35f 17f
9:36 6 14 mph 1018.8mb 35f 17f
9:30 5 11 mph 1018.8mb 35f 17f
9:24 3 11 mph 1018.8mb 36f 17f
9:18 5 13 mph 1018.8mb 36f 17f
9:12 6 14 mph 1018.8mb 36f 16f
9:06 6 14 mph 1018.8mb 36f 16f
9:00 8 15 mph 1018.9mb 36f 16f
8:54 7 15 mph 1019mb 36f 16f
8:48 7 14 mph 1019mb 36f 16f
8:42 3 11 mph 1019mb 36f 17f
8:36 5 11 mph 1019mb 36f 16f
8:30 3 9 mph 1019mb 36f 16f
8:24 6 11 mph 1019.1mb 36f 16f
8:18 5 15 mph 1019.1mb 36f 16f
8:12 5 10 mph 1019mb 36f 16f
8:06 6 14 mph 1019mb 36f 16f
8:00 5 11 mph 1019.1mb 36f 16f
7:54 5 10 mph 1019.1mb 35f 16f
7:48 5 10 mph 1019.1mb 35f 16f
7:42 6 14 mph 1019.1mb 35f 16f
7:36 6 14 mph 1019.3mb 35f 15f
7:30 6 13 mph 1019.2mb 35f 16f
7:24 6 13 mph 1019.2mb 35f 16f
7:18 3 9 mph 1019.1mb 35f 16f
7:12 3 8 mph 1019mb 35f 17f
7:06 6 11 mph 1019mb 35f 16f
7:00 6 10 mph 1019.1mb 35f 16f
6:54 5 10 mph 1019mb 35f 17f
6:48 6 11 mph 1019.1mb 35f 17f
6:42 5 13 mph 1019mb 35f 17f
6:36 5 14 mph 1019mb 35f 17f
6:30 6 13 mph 1019mb 35f 17f
6:24 6 9 mph 1018.9mb 35f 17f
6:18 2 7 mph 1019.1mb 35f 17f
6:12 7 9 mph 1019mb 35f 17f
6:06 5 9 mph 1019mb 35f 17f
6:00 5 9 mph 1019mb 35f 17f
5:54 2 10 mph 1018.9mb 35f 17f
5:48 3 10 mph 1018.8mb 35f 17f
5:42 3 10 mph 1018.7mb 36f 17f
5:36 3 9 mph 1018.6mb 36f 17f
5:30 6 11 mph 1018.5mb 36f 18f
5:24 7 11 mph 1018.5mb 36f 17f
5:18 3 9 mph 1018.6mb 36f 17f
5:12 6 10 mph 1018.5mb 36f 17f
5:06 3 9 mph 1018.4mb 36f 17f
5:00 3 11 mph 1018.4mb 36f 17f
4:54 3 11 mph 1018mb 36f 18f
4:48 6 10 mph 1018.1mb 36f 18f
4:42 6 16 mph 1018.2mb 36f 18f
4:36 6 15 mph 1018.2mb 36f 19f
4:30 5 11 mph 1018.1mb 36f 19f
4:24 6 13 mph 1018.1mb 36f 19f
4:18 5 13 mph 1017.9mb 36f 19f
4:12 2 10 mph 1017.9mb 36f 19f
4:06 5 11 mph 1017.9mb 36f 19f
4:00 6 13 mph 1017.9mb 36f 19f
3:54 5 10 mph 1018mb 36f 20f
3:48 6 10 mph 1017.8mb 36f 20f
3:42 7 13 mph 1017.8mb 36f 20f
3:36 7 11 mph 1017.8mb 36f 20f
3:30 2 10 mph 1017.7mb 36f 20f
3:24 2 9 mph 1017.7mb 36f 20f
3:18 5 13 mph 1017.8mb 36f 21f
3:12 3 8 mph 1017.7mb 36f 21f
3:06 3 8 mph 1017.8mb 36f 21f
3:00 3 9 mph 1017.7mb 37f 21f
2:54 3 7 mph 1017.6mb 37f 21f
2:48 5 9 mph 1017.5mb 37f 21f
2:42 6 10 mph 1017.4mb 37f 21f
2:36 7 14 mph 1017.2mb 37f 22f
2:30 7 13 mph 1017.2mb 37f 22f
2:24 5 10 mph 1017.2mb 37f 22f
2:18 5 9 mph 1017.1mb 37f 22f
2:12 5 11 mph 1017.2mb 37f 22f
2:06 6 13 mph 1017.1mb 37f 22f
2:00 6 10 mph 1017.1mb 37f 22f
1:54 5 8 mph 1017.1mb 37f 22f
1:48 6 14 mph 1017.1mb - 22f
1:42 6 15 mph 1016.9mb - 22f
1:36 5 13 mph 1016.7mb - 22f
1:30 3 9 mph 1016.5mb 37f 23f
1:24 6 10 mph 1016.7mb 37f 22f
1:18 6 11 mph 1016.7mb 37f 23f
1:12 5 8 mph 1016.5mb 37f 23f
1:06 5 10 mph 1016.5mb 37f 23f
1:00 6 13 mph 1016.4mb 37f 23f
12:54 2 8 mph 1016.4mb 37f 23f
12:48 3 15 mph 1016.4mb 38f 23f
12:42 5 13 mph 1016.3mb 38f 23f
12:36 7 13 mph 1016.2mb 38f 23f
12:30 3 11 mph 1016.3mb 38f 23f
12:24 8 11 mph 1016.1mb 38f 23f
12:18 6 9 mph 1016.1mb 38f 24f
12:12 7 10 mph 1016.2mb 38f 24f
12:06 8 11 mph 1016.1mb 38f 24f
12:00 8 11 mph 1016.3mb 38f 24f
dom 01/25 11:54 7 10 mph 1016.5mb 38f 24f
11:48 7 9 mph 1016.5mb 38f 24f
11:42 6 7 mph 1016.5mb 38f 24f
11:36 2 7 mph 1016.4mb 38f 24f
11:30 5 9 mph 1016.2mb 38f 24f
11:24 6 8 mph 1016.1mb 38f 24f
11:18 6 10 mph 1016mb 38f 24f
11:12 8 10 mph 1015.6mb 38f 24f
11:06 7 10 mph 1015.4mb 38f 24f
11:00 8 11 mph 1015.5mb 38f 25f
10:54 6 8 mph 1015.4mb 38f 25f
10:48 7 9 mph 1015mb 38f 25f